Time;durP1;ratioP1;P1;durP2;ratioP2;P2;SDS_P1;SDS_P2;PMS_P1;PMS_P2;Temp;Humidity;BMP_temperature;BMP_pressure;BME280_temperature;BME280_humidity;BME280_pressure;Samples;Min_cycle;Max_cycle;Signal;HPM_P1;HPM_P2
2022/07/10 00:00:26;;;;;;;0.10;0.10;;;;;;;;;;5012537;28;20080;-87
2022/07/10 00:02:52;;;;;;;0.10;0.10;;;;;;;;;;5019786;28;20048;-91
2022/07/10 00:05:19;;;;;;;0.20;0.20;;;;;;;;;;5036928;28;20037;-90
2022/07/10 00:07:45;;;;;;;0.03;0.03;;;;;;;;;;5007159;28;20045;-91
2022/07/10 00:10:11;;;;;;;0.20;0.20;;;;;;;;;;4999697;28;20044;-90
2022/07/10 00:12:39;;;;;;;0.20;0.20;;;;;;;;;;5017851;28;20041;-90
2022/07/10 00:15:05;;;;;;;0.10;0.10;;;;;;;;;;5004520;28;20042;-91
2022/07/10 00:17:33;;;;;;;0.10;0.10;;;;;;;;;;5010224;28;20082;-91
2022/07/10 00:19:59;;;;;;;0.10;0.10;;;;;;;;;;5019467;28;20086;-91
2022/07/10 00:22:26;;;;;;;0.10;0.10;;;;;;;;;;5017495;28;20093;-88
2022/07/10 00:24:56;;;;;;;0.22;0.22;;;;;;;;;;5000400;28;20065;-88
2022/07/10 00:27:23;;;;;;;0.03;0.03;;;;;;;;;;5006621;28;20034;-90
2022/07/10 00:29:49;;;;;;;0.10;0.10;;;;;;;;;;5037138;28;20495;-90
2022/07/10 00:32:15;;;;;;;0.20;0.20;;;;;;;;;;5007214;28;20128;-90
2022/07/10 00:34:41;;;;;;;0.20;0.20;;;;;;;;;;5018962;28;20500;-90
2022/07/10 00:37:07;;;;;;;0.10;0.10;;;;;;;;;;5019578;28;20096;-90
2022/07/10 00:39:33;;;;;;;0.10;0.10;;;;;;;;;;5017386;28;20045;-90
2022/07/10 00:42:08;;;;;;;0.10;0.10;;;;;;;;;;5017656;28;20045;-90
2022/07/10 00:44:35;;;;;;;0.10;0.10;;;;;;;;;;5020053;28;20091;-90
2022/07/10 00:47:01;;;;;;;0.13;0.13;;;;;;;;;;5015225;28;20049;-90
2022/07/10 00:49:27;;;;;;;0.10;0.10;;;;;;;;;;5003301;28;20042;-90
2022/07/10 00:51:54;;;;;;;0.10;0.10;;;;;;;;;;5020151;28;20395;-91
2022/07/10 00:54:20;;;;;;;0.17;0.17;;;;;;;;;;5013061;28;20060;-90
2022/07/10 00:56:46;;;;;;;0.10;0.10;;;;;;;;;;5036232;28;20414;-91
2022/07/10 00:59:16;;;;;;;0.10;0.10;;;;;;;;;;5020533;28;20451;-89
2022/07/10 01:01:42;;;;;;;0.13;0.13;;;;;;;;;;5016084;28;20046;-91
2022/07/10 01:04:08;;;;;;;0.10;0.10;;;;;;;;;;5001078;28;20041;-90
2022/07/10 01:06:34;;;;;;;0.00;0.00;;;;;;;;;;5035272;28;20047;-90
2022/07/10 01:09:00;;;;;;;0.10;0.10;;;;;;;;;;5023507;28;20037;-90
2022/07/10 01:11:26;;;;;;;0.10;0.10;;;;;;;;;;5019650;28;20042;-89
2022/07/10 01:13:52;;;;;;;0.10;0.10;;;;;;;;;;5030339;28;20038;-91
2022/07/10 01:16:18;;;;;;;0.10;0.10;;;;;;;;;;5019500;28;20189;-89
2022/07/10 01:18:44;;;;;;;0.17;0.17;;;;;;;;;;5005553;28;20515;-89
2022/07/10 01:21:29;;;;;;;0.10;0.10;;;;;;;;;;5019348;28;20050;-90
2022/07/10 01:23:55;;;;;;;0.00;0.00;;;;;;;;;;5022406;28;20468;-89
2022/07/10 01:26:23;;;;;;;0.10;0.10;;;;;;;;;;5022023;28;20450;-89
2022/07/10 01:28:50;;;;;;;0.20;0.20;;;;;;;;;;5019077;28;20064;-90
2022/07/10 01:31:17;;;;;;;0.55;0.55;;;;;;;;;;5002401;28;20042;-90
2022/07/10 01:33:44;;;;;;;0.00;0.00;;;;;;;;;;5021738;28;20044;-88
2022/07/10 01:36:10;;;;;;;0.10;0.10;;;;;;;;;;5021927;28;20068;-90
2022/07/10 01:38:36;;;;;;;0.10;0.10;;;;;;;;;;5024114;28;20060;-89
2022/07/10 01:41:04;;;;;;;0.20;0.20;;;;;;;;;;5010595;28;20131;-89
2022/07/10 01:43:30;;;;;;;0.20;0.20;;;;;;;;;;5019822;28;20050;-89
2022/07/10 01:45:57;;;;;;;0.17;0.17;;;;;;;;;;5015111;28;20041;-89
2022/07/10 01:48:23;;;;;;;0.10;0.10;;;;;;;;;;5040009;28;20095;-89
2022/07/10 01:50:49;;;;;;;0.10;0.10;;;;;;;;;;5016536;28;20037;-90
2022/07/10 01:53:16;;;;;;;0.10;0.10;;;;;;;;;;5004119;28;20121;-90
2022/07/10 01:55:43;;;;;;;0.10;0.10;;;;;;;;;;5003309;28;20048;-88
2022/07/10 01:58:09;;;;;;;0.20;0.20;;;;;;;;;;5023061;28;20041;-89
2022/07/10 02:00:35;;;;;;;0.08;0.08;;;;;;;;;;5022474;28;20056;-89
2022/07/10 02:05:46;;;;;;;0.10;0.10;;;;;;;;;;5036569;28;20053;-90
2022/07/10 02:08:12;;;;;;;0.10;0.10;;;;;;;;;;5019558;28;20435;-88
2022/07/10 02:10:39;;;;;;;0.20;0.20;;;;;;;;;;5011119;28;20491;-90
2022/07/10 02:13:05;;;;;;;0.13;0.13;;;;;;;;;;5038068;28;20041;-91
2022/07/10 02:15:37;;;;;;;0.15;0.15;;;;;;;;;;5018023;28;20128;-90
2022/07/10 02:18:03;;;;;;;0.20;0.20;;;;;;;;;;5032588;28;20072;-90
2022/07/10 02:20:32;;;;;;;0.10;0.10;;;;;;;;;;5008497;28;20042;-91
2022/07/10 02:22:58;;;;;;;0.10;0.10;;;;;;;;;;5010415;28;20135;-89
2022/07/10 02:25:24;;;;;;;0.10;0.10;;;;;;;;;;5016062;28;20524;-90
2022/07/10 02:27:50;;;;;;;0.20;0.20;;;;;;;;;;5019081;28;20128;-89
2022/07/10 02:30:16;;;;;;;0.05;0.05;;;;;;;;;;5016000;28;20042;-90
2022/07/10 02:32:42;;;;;;;0.03;0.03;;;;;;;;;;5009786;28;20057;-90
2022/07/10 02:35:17;;;;;;;;;;;;;;;;;;5024693;28;20454;-90
2022/07/10 02:37:43;;;;;;;0.10;0.10;;;;;;;;;;5015098;28;19932;-91
2022/07/10 02:40:10;;;;;;;0.13;0.13;;;;;;;;;;5002167;28;20038;-90
2022/07/10 02:42:37;;;;;;;0.10;0.10;;;;;;;;;;5020729;28;20041;-89
2022/07/10 02:45:03;;;;;;;0.05;0.05;;;;;;;;;;5017677;28;20073;-90
2022/07/10 02:47:31;;;;;;;0.10;0.10;;;;;;;;;;5004618;28;20041;-91
2022/07/10 02:49:57;;;;;;;0.20;0.20;;;;;;;;;;5028021;28;20124;-91
2022/07/10 02:52:23;;;;;;;0.10;0.10;;;;;;;;;;5009228;28;20042;-91
2022/07/10 02:54:53;;;;;;;0.10;0.10;;;;;;;;;;5036611;28;20061;-91
2022/07/10 02:57:19;;;;;;;0.35;0.35;;;;;;;;;;5010371;28;20108;-89
2022/07/10 02:59:48;;;;;;;0.10;0.10;;;;;;;;;;5004151;28;20053;-90
2022/07/10 03:02:15;;;;;;;0.10;0.10;;;;;;;;;;5012271;28;20049;-90
2022/07/10 03:04:42;;;;;;;0.10;0.10;;;;;;;;;;5018478;28;20084;-90
2022/07/10 03:07:08;;;;;;;0.20;0.20;;;;;;;;;;4993986;28;20034;-91
2022/07/10 03:09:37;;;;;;;0.10;0.10;;;;;;;;;;5039745;28;20049;-87
2022/07/10 03:12:06;;;;;;;0.10;0.10;;;;;;;;;;5033004;28;20101;-91
2022/07/10 03:14:32;;;;;;;0.10;0.10;;;;;;;;;;5002807;28;20061;-91
2022/07/10 03:16:58;;;;;;;0.10;0.10;;;;;;;;;;5017709;28;20068;-90
2022/07/10 03:19:25;;;;;;;0.10;0.10;;;;;;;;;;5029522;28;20168;-91
2022/07/10 03:21:52;;;;;;;0.10;0.10;;;;;;;;;;5008928;28;20048;-92
2022/07/10 03:24:18;;;;;;;0.00;0.00;;;;;;;;;;5021700;28;20061;-89
2022/07/10 03:26:47;;;;;;;0.15;0.15;;;;;;;;;;5035310;28;20132;-91
2022/07/10 03:29:13;;;;;;;0.05;0.05;;;;;;;;;;5015929;28;20157;-91
2022/07/10 03:31:39;;;;;;;0.10;0.10;;;;;;;;;;5037715;28;20123;-90
2022/07/10 03:34:07;;;;;;;0.03;0.03;;;;;;;;;;5033802;28;20061;-91
2022/07/10 03:36:33;;;;;;;0.10;0.10;;;;;;;;;;5020037;28;20044;-91
2022/07/10 03:39:02;;;;;;;0.17;0.17;;;;;;;;;;5020343;28;20037;-90
2022/07/10 03:41:28;;;;;;;0.10;0.10;;;;;;;;;;5006745;28;20129;-90
2022/07/10 03:43:54;;;;;;;0.10;0.10;;;;;;;;;;5022147;28;20050;-90
2022/07/10 03:46:20;;;;;;;0.10;0.10;;;;;;;;;;5030111;28;20479;-91
2022/07/10 03:48:49;;;;;;;0.10;0.10;;;;;;;;;;5003052;28;20492;-91
2022/07/10 03:51:16;;;;;;;0.10;0.10;;;;;;;;;;5018720;28;20128;-91
2022/07/10 03:53:42;;;;;;;0.13;0.13;;;;;;;;;;5018593;28;20046;-90
2022/07/10 03:56:08;;;;;;;0.10;0.10;;;;;;;;;;5031136;28;20073;-90
2022/07/10 03:58:34;;;;;;;0.10;0.10;;;;;;;;;;5022069;28;20045;-91
2022/07/10 04:01:00;;;;;;;0.10;0.10;;;;;;;;;;5018803;28;20087;-89
2022/07/10 04:03:26;;;;;;;0.10;0.10;;;;;;;;;;5021503;28;20084;-91
2022/07/10 04:05:52;;;;;;;0.03;0.03;;;;;;;;;;5021177;28;20045;-90
2022/07/10 04:08:18;;;;;;;0.20;0.20;;;;;;;;;;5018241;28;20523;-88
2022/07/10 04:10:45;;;;;;;0.17;0.17;;;;;;;;;;5001857;28;20038;-90
2022/07/10 04:13:11;;;;;;;0.10;0.10;;;;;;;;;;5017762;28;20045;-90
2022/07/10 04:15:37;;;;;;;0.10;0.10;;;;;;;;;;5013156;28;20137;-90
2022/07/10 04:18:03;;;;;;;0.20;0.20;;;;;;;;;;5001924;28;20060;-90
2022/07/10 04:20:31;;;;;;;0.10;0.10;;;;;;;;;;5018344;28;20046;-90
2022/07/10 04:22:57;;;;;;;0.10;0.10;;;;;;;;;;5002601;28;20136;-88
2022/07/10 04:25:23;;;;;;;0.10;0.10;;;;;;;;;;5002559;28;20053;-89
2022/07/10 04:27:49;;;;;;;0.10;0.10;;;;;;;;;;5018762;28;20081;-91
2022/07/10 04:30:18;;;;;;;0.20;0.20;;;;;;;;;;5019009;28;20041;-90
2022/07/10 04:32:44;;;;;;;0.10;0.10;;;;;;;;;;5018470;28;20399;-90
2022/07/10 04:35:12;;;;;;;0.10;0.10;;;;;;;;;;5020845;28;20048;-91
2022/07/10 04:37:39;;;;;;;0.00;0.00;;;;;;;;;;5021113;28;20089;-90
2022/07/10 04:40:07;;;;;;;0.10;0.10;;;;;;;;;;5007249;28;20038;-90
2022/07/10 04:42:33;;;;;;;0.10;0.10;;;;;;;;;;5009061;28;20044;-90
2022/07/10 04:45:02;;;;;;;0.00;0.00;;;;;;;;;;5024917;28;20503;-89
2022/07/10 04:47:29;;;;;;;0.10;0.10;;;;;;;;;;5041615;28;20111;-89
2022/07/10 04:49:55;;;;;;;0.10;0.10;;;;;;;;;;5014873;28;20365;-89
2022/07/10 04:52:22;;;;;;;0.10;0.10;;;;;;;;;;5005938;28;20034;-89
2022/07/10 04:54:51;;;;;;;0.13;0.13;;;;;;;;;;5008185;28;20044;-90
2022/07/10 04:57:17;;;;;;;0.00;0.00;;;;;;;;;;5040866;28;20128;-88
2022/07/10 04:59:43;;;;;;;0.10;0.10;;;;;;;;;;5025547;28;20087;-88
2022/07/10 05:02:10;;;;;;;0.00;0.00;;;;;;;;;;5025859;28;20045;-90
2022/07/10 05:04:36;;;;;;;0.10;0.10;;;;;;;;;;5011357;28;20065;-91
2022/07/10 05:07:02;;;;;;;0.05;0.05;;;;;;;;;;4990030;28;20034;-90
2022/07/10 05:09:30;;;;;;;0.10;0.10;;;;;;;;;;4987085;28;20121;-90
2022/07/10 05:11:56;;;;;;;0.15;0.15;;;;;;;;;;4976436;28;20143;-90
2022/07/10 05:14:25;;;;;;;0.10;0.10;;;;;;;;;;4990478;28;20384;-89
2022/07/10 05:16:51;;;;;;;0.10;0.10;;;;;;;;;;5006492;28;20045;-90
2022/07/10 05:19:17;;;;;;;0.00;0.00;;;;;;;;;;4980794;28;20109;-91
2022/07/10 05:21:44;;;;;;;0.20;0.20;;;;;;;;;;4985294;28;20136;-89
2022/07/10 05:24:10;;;;;;;0.20;0.20;;;;;;;;;;5001228;28;20046;-89
2022/07/10 05:26:37;;;;;;;0.17;0.17;;;;;;;;;;4995653;28;20077;-90
2022/07/10 05:29:03;;;;;;;0.20;0.20;;;;;;;;;;4970538;28;20069;-91
2022/07/10 05:31:29;;;;;;;0.10;0.10;;;;;;;;;;4955318;28;20042;-89
2022/07/10 05:33:55;;;;;;;0.10;0.10;;;;;;;;;;4974954;28;20453;-89
2022/07/10 05:36:21;;;;;;;0.10;0.10;;;;;;;;;;4970218;28;20136;-90
2022/07/10 05:38:48;;;;;;;0.10;0.10;;;;;;;;;;4970144;28;20054;-91
2022/07/10 05:41:15;;;;;;;0.10;0.10;;;;;;;;;;4963557;28;20073;-90
2022/07/10 05:43:41;;;;;;;0.00;0.00;;;;;;;;;;4999982;28;20069;-91
2022/07/10 05:46:07;;;;;;;0.20;0.20;;;;;;;;;;4980492;28;20046;-89
2022/07/10 05:48:38;;;;;;;0.10;0.10;;;;;;;;;;5002119;28;20034;-95
2022/07/10 05:51:04;;;;;;;0.10;0.10;;;;;;;;;;4990775;28;20042;-90
2022/07/10 05:53:30;;;;;;;0.00;0.00;;;;;;;;;;5009175;28;20042;-90
2022/07/10 05:56:00;;;;;;;0.10;0.10;;;;;;;;;;4969850;28;20049;-90
2022/07/10 05:58:31;;;;;;;0.05;0.05;;;;;;;;;;4976123;28;20470;-92
2022/07/10 06:00:57;;;;;;;0.10;0.10;;;;;;;;;;4977803;28;20026;-89
2022/07/10 06:03:24;;;;;;;0.10;0.10;;;;;;;;;;5000764;28;20042;-90
2022/07/10 06:05:50;;;;;;;0.08;0.08;;;;;;;;;;4980720;28;20086;-91
2022/07/10 06:08:16;;;;;;;0.10;0.10;;;;;;;;;;4970269;28;20038;-90
2022/07/10 06:10:45;;;;;;;0.10;0.10;;;;;;;;;;4969441;28;20488;-90
2022/07/10 06:13:12;;;;;;;0.17;0.17;;;;;;;;;;4970489;28;20034;-92
2022/07/10 06:15:38;;;;;;;0.10;0.10;;;;;;;;;;4988071;28;20041;-90
2022/07/10 06:18:04;;;;;;;0.10;0.10;;;;;;;;;;4984787;28;20053;-89
2022/07/10 06:20:31;;;;;;;0.10;0.10;;;;;;;;;;4969028;28;20045;-89
2022/07/10 06:23:11;;;;;;;0.20;0.20;;;;;;;;;;4992062;28;20048;-90
2022/07/10 06:25:37;;;;;;;0.00;0.00;;;;;;;;;;4977585;28;20046;-90
2022/07/10 06:28:03;;;;;;;0.20;0.20;;;;;;;;;;4968598;28;20041;-89
2022/07/10 06:30:29;;;;;;;0.10;0.10;;;;;;;;;;4972892;28;20046;-89
2022/07/10 06:32:55;;;;;;;0.00;0.00;;;;;;;;;;4983910;28;20153;-90
2022/07/10 06:35:22;;;;;;;0.20;0.20;;;;;;;;;;4986211;28;20053;-90
2022/07/10 06:37:48;;;;;;;0.10;0.10;;;;;;;;;;4988098;28;20260;-90
2022/07/10 06:40:14;;;;;;;0.10;0.10;;;;;;;;;;4973315;28;20042;-89
2022/07/10 06:42:40;;;;;;;0.10;0.10;;;;;;;;;;4988107;28;20500;-88
2022/07/10 06:45:07;;;;;;;0.10;0.10;;;;;;;;;;4975333;28;20046;-89
2022/07/10 06:47:58;;;;;;;0.20;0.20;;;;;;;;;;4964106;28;20444;-93
2022/07/10 06:50:25;;;;;;;0.10;0.10;;;;;;;;;;4965386;28;20049;-89
2022/07/10 06:52:52;;;;;;;0.10;0.10;;;;;;;;;;4986627;28;20044;-91
2022/07/10 06:55:21;;;;;;;0.00;0.00;;;;;;;;;;5000689;28;20397;-90
2022/07/10 06:57:48;;;;;;;0.10;0.10;;;;;;;;;;4967611;28;20523;-90
2022/07/10 07:00:15;;;;;;;0.00;0.00;;;;;;;;;;4974493;28;20038;-88
2022/07/10 07:02:42;;;;;;;0.05;0.05;;;;;;;;;;5011051;28;20041;-89
2022/07/10 07:05:08;;;;;;;0.08;0.08;;;;;;;;;;5022967;28;20041;-89
2022/07/10 07:07:35;;;;;;;0.10;0.10;;;;;;;;;;5039706;28;20049;-90
2022/07/10 07:10:03;;;;;;;0.10;0.10;;;;;;;;;;5020523;28;20044;-91
2022/07/10 07:12:29;;;;;;;0.10;0.10;;;;;;;;;;5020795;28;20479;-90
2022/07/10 07:14:55;;;;;;;0.00;0.00;;;;;;;;;;5027043;28;20037;-91
2022/07/10 07:17:24;;;;;;;0.00;0.00;;;;;;;;;;5019224;28;20120;-89
2022/07/10 07:25:21;;;;;;;0.00;0.00;;;;;;;;;;5025900;28;20049;-91
2022/07/10 07:27:47;;;;;;;0.08;0.08;;;;;;;;;;5020111;28;20046;-90
2022/07/10 07:30:15;;;;;;;0.10;0.10;;;;;;;;;;5003863;28;20045;-90
2022/07/10 07:32:41;;;;;;;0.05;0.05;;;;;;;;;;5003176;28;20042;-90
2022/07/10 07:35:08;;;;;;;0.00;0.00;;;;;;;;;;5031440;28;20485;-89
2022/07/10 07:37:48;;;;;;;0.08;0.08;;;;;;;;;;5015642;28;20056;-91
2022/07/10 07:40:15;;;;;;;0.20;0.20;;;;;;;;;;5017188;28;20049;-91
2022/07/10 07:42:41;;;;;;;0.10;0.10;;;;;;;;;;5016721;28;20407;-90
2022/07/10 07:45:08;;;;;;;0.10;0.10;;;;;;;;;;5016091;28;20064;-90
2022/07/10 07:47:54;;;;;;;0.08;0.08;;;;;;;;;;5020588;28;20045;-90
2022/07/10 07:50:26;;;;;;;0.10;0.10;;;;;;;;;;5019595;28;20041;-90
2022/07/10 07:52:52;;;;;;;0.03;0.03;;;;;;;;;;5035185;28;20044;-90
2022/07/10 07:55:22;;;;;;;0.00;0.00;;;;;;;;;;5021026;28;20072;-91
2022/07/10 07:57:51;;;;;;;0.10;0.10;;;;;;;;;;5037969;28;20053;-90
2022/07/10 08:00:18;;;;;;;0.00;0.00;;;;;;;;;;5019062;28;20046;-90
2022/07/10 08:02:44;;;;;;;0.00;0.00;;;;;;;;;;5010755;28;20107;-90
2022/07/10 08:05:10;;;;;;;0.10;0.10;;;;;;;;;;5026398;28;20050;-89
2022/07/10 08:07:43;;;;;;;0.10;0.10;;;;;;;;;;5008148;28;20073;-89
2022/07/10 08:10:11;;;;;;;0.10;0.10;;;;;;;;;;5022765;28;20196;-88
2022/07/10 08:12:46;;;;;;;0.00;0.00;;;;;;;;;;5036242;28;20033;-90
2022/07/10 08:15:17;;;;;;;0.10;0.10;;;;;;;;;;4999682;28;20042;-92
2022/07/10 08:17:43;;;;;;;0.00;0.00;;;;;;;;;;5001067;28;20049;-90
2022/07/10 08:20:11;;;;;;;0.10;0.10;;;;;;;;;;5001657;28;20046;-93
2022/07/10 08:22:38;;;;;;;0.10;0.10;;;;;;;;;;5001219;28;20129;-91
2022/07/10 08:25:04;;;;;;;0.10;0.10;;;;;;;;;;5001011;28;20484;-92
2022/07/10 08:27:30;;;;;;;0.10;0.10;;;;;;;;;;5001019;28;20064;-92
2022/07/10 08:29:56;;;;;;;0.10;0.10;;;;;;;;;;5001795;28;20038;-91
2022/07/10 08:32:26;;;;;;;0.20;0.20;;;;;;;;;;5018602;28;20034;-92
2022/07/10 08:34:52;;;;;;;0.10;0.10;;;;;;;;;;5023240;28;20037;-89
2022/07/10 08:37:19;;;;;;;0.00;0.00;;;;;;;;;;5013998;28;20411;-90
2022/07/10 08:39:45;;;;;;;0.05;0.05;;;;;;;;;;5009649;28;20079;-90
2022/07/10 08:42:12;;;;;;;0.05;0.05;;;;;;;;;;5025603;28;20033;-89
2022/07/10 08:44:38;;;;;;;0.10;0.10;;;;;;;;;;5040003;28;20049;-90
2022/07/10 08:47:05;;;;;;;0.10;0.10;;;;;;;;;;5004261;28;20045;-90
2022/07/10 08:49:31;;;;;;;0.00;0.00;;;;;;;;;;5004781;28;20045;-91
2022/07/10 08:52:04;;;;;;;0.00;0.00;;;;;;;;;;5007700;28;20037;-89
2022/07/10 08:54:31;;;;;;;0.10;0.10;;;;;;;;;;5022004;28;20109;-90
2022/07/10 08:56:58;;;;;;;0.00;0.00;;;;;;;;;;5024365;28;20141;-91
2022/07/10 08:59:32;;;;;;;0.03;0.03;;;;;;;;;;5040154;28;20457;-89
2022/07/10 09:01:58;;;;;;;0.10;0.10;;;;;;;;;;5024300;28;20045;-89
2022/07/10 09:04:27;;;;;;;0.00;0.00;;;;;;;;;;5020881;28;20049;-91
2022/07/10 09:06:54;;;;;;;0.10;0.10;;;;;;;;;;5020812;28;20117;-91
2022/07/10 09:09:20;;;;;;;0.10;0.10;;;;;;;;;;5045963;28;20305;-91
2022/07/10 09:11:47;;;;;;;0.10;0.10;;;;;;;;;;5030430;28;20068;-91
2022/07/10 09:14:23;;;;;;;0.10;0.10;;;;;;;;;;5024735;28;20092;-90
2022/07/10 09:16:51;;;;;;;0.10;0.10;;;;;;;;;;5022918;28;20080;-89
2022/07/10 09:19:24;;;;;;;0.00;0.00;;;;;;;;;;5019505;28;20041;-87
2022/07/10 09:21:56;;;;;;;0.10;0.10;;;;;;;;;;5016137;28;20038;-89
2022/07/10 09:24:23;;;;;;;0.10;0.10;;;;;;;;;;5000657;28;20046;-91
2022/07/10 09:26:55;;;;;;;0.17;0.17;;;;;;;;;;5019425;28;20108;-89
2022/07/10 09:29:21;;;;;;;0.10;0.10;;;;;;;;;;5012686;28;20038;-89
2022/07/10 09:31:57;;;;;;;0.00;0.00;;;;;;;;;;5008275;28;20111;-89
2022/07/10 09:34:42;;;;;;;0.00;0.00;;;;;;;;;;5018759;28;20037;-91
2022/07/10 09:37:28;;;;;;;0.00;0.00;;;;;;;;;;5027567;28;20049;-89
2022/07/10 09:39:55;;;;;;;0.00;0.00;;;;;;;;;;5014106;28;20087;-89
2022/07/10 09:42:28;;;;;;;0.10;0.10;;;;;;;;;;5016983;28;20423;-88
2022/07/10 09:45:13;;;;;;;0.05;0.05;;;;;;;;;;5014987;28;20462;-89
2022/07/10 09:47:40;;;;;;;0.03;0.03;;;;;;;;;;5037385;28;20037;-88
2022/07/10 09:50:25;;;;;;;0.03;0.03;;;;;;;;;;5016318;28;20029;-89
2022/07/10 09:52:53;;;;;;;0.00;0.00;;;;;;;;;;5018854;28;20038;-89
2022/07/10 09:55:20;;;;;;;0.10;0.10;;;;;;;;;;5015561;28;20065;-89
2022/07/10 09:57:48;;;;;;;0.10;0.10;;;;;;;;;;5016538;28;20068;-88
2022/07/10 10:00:17;;;;;;;0.03;0.03;;;;;;;;;;5018159;28;20033;-88
2022/07/10 10:02:48;;;;;;;0.00;0.00;;;;;;;;;;5035993;28;20104;-90
2022/07/10 10:05:15;;;;;;;0.10;0.10;;;;;;;;;;5018685;28;20128;-93
2022/07/10 10:07:41;;;;;;;0.00;0.00;;;;;;;;;;5018872;28;20480;-91
2022/07/10 10:10:08;;;;;;;0.10;0.10;;;;;;;;;;5020043;28;20487;-88
2022/07/10 10:12:43;;;;;;;0.10;0.10;;;;;;;;;;5019025;28;20045;-87
2022/07/10 10:15:08;;;;;;;;;;;;;;;;;;5005489;28;20128;-88
2022/07/10 10:17:35;;;;;;;0.00;0.00;;;;;;;;;;5032712;28;20022;-89
2022/07/10 10:22:47;;;;;;;0.00;0.00;;;;;;;;;;5031886;28;20052;-88
2022/07/10 10:25:14;;;;;;;0.00;0.00;;;;;;;;;;5006281;28;20037;-89
2022/07/10 10:27:40;;;;;;;0.20;0.20;;;;;;;;;;5009103;28;20522;-87
2022/07/10 10:30:07;;;;;;;0.10;0.10;;;;;;;;;;5002513;28;20041;-88
2022/07/10 10:32:40;;;;;;;0.00;0.00;;;;;;;;;;5037857;28;20139;-90
2022/07/10 10:35:09;;;;;;;0.00;0.00;;;;;;;;;;5007426;28;20042;-93
2022/07/10 10:37:44;;;;;;;0.08;0.08;;;;;;;;;;4997859;28;20038;-92
2022/07/10 10:40:11;;;;;;;0.00;0.00;;;;;;;;;;5009416;28;20063;-88
2022/07/10 10:42:42;;;;;;;0.10;0.10;;;;;;;;;;5018621;28;20064;-89
2022/07/10 10:45:28;;;;;;;0.10;0.10;;;;;;;;;;5036683;28;20455;-88
2022/07/10 10:48:08;;;;;;;0.10;0.10;;;;;;;;;;5015851;28;20076;-88
2022/07/10 10:50:41;;;;;;;0.10;0.10;;;;;;;;;;5017597;28;20044;-87
2022/07/10 10:53:14;;;;;;;0.10;0.10;;;;;;;;;;5014480;28;20029;-87
2022/07/10 10:55:41;;;;;;;0.08;0.08;;;;;;;;;;5006011;28;20053;-88
2022/07/10 10:58:23;;;;;;;0.10;0.10;;;;;;;;;;5007849;28;20124;-87
2022/07/10 11:00:50;;;;;;;0.10;0.10;;;;;;;;;;5008991;28;20046;-88
2022/07/10 11:03:17;;;;;;;0.00;0.00;;;;;;;;;;5014098;28;20065;-88
2022/07/10 11:05:44;;;;;;;0.10;0.10;;;;;;;;;;5033474;28;20052;-87
2022/07/10 11:08:11;;;;;;;0.00;0.00;;;;;;;;;;5032927;28;20040;-88
2022/07/10 11:10:39;;;;;;;0.08;0.08;;;;;;;;;;5015458;28;20103;-88
2022/07/10 11:13:08;;;;;;;0.10;0.10;;;;;;;;;;5014257;28;20454;-87
2022/07/10 11:15:42;;;;;;;0.10;0.10;;;;;;;;;;5032117;28;20037;-87
2022/07/10 11:18:09;;;;;;;0.00;0.00;;;;;;;;;;5005775;28;20057;-87
2022/07/10 11:20:44;;;;;;;0.00;0.00;;;;;;;;;;5023305;28;20042;-87
2022/07/10 11:23:27;;;;;;;0.00;0.00;;;;;;;;;;5014147;28;20041;-87
2022/07/10 11:26:11;;;;;;;0.00;0.00;;;;;;;;;;5014589;28;20552;-87
2022/07/10 11:28:43;;;;;;;0.20;0.20;;;;;;;;;;5034093;28;20041;-87
2022/07/10 11:31:09;;;;;;;0.00;0.00;;;;;;;;;;5033809;28;20048;-86
2022/07/10 11:33:43;;;;;;;0.00;0.00;;;;;;;;;;5013754;28;20554;-87
2022/07/10 11:36:11;;;;;;;0.00;0.00;;;;;;;;;;5010271;28;20175;-87
2022/07/10 11:38:38;;;;;;;0.10;0.10;;;;;;;;;;5029006;28;20049;-88
2022/07/10 11:41:04;;;;;;;0.10;0.10;;;;;;;;;;5016549;28;20057;-88
2022/07/10 11:43:30;;;;;;;0.10;0.10;;;;;;;;;;5000961;28;20057;-88
2022/07/10 11:46:00;;;;;;;0.15;0.15;;;;;;;;;;5027617;28;20037;-88
2022/07/10 11:48:27;;;;;;;0.00;0.00;;;;;;;;;;5028094;28;20052;-88
2022/07/10 11:50:53;;;;;;;0.03;0.03;;;;;;;;;;5013677;28;20037;-88
2022/07/10 11:53:26;;;;;;;0.00;0.00;;;;;;;;;;5038717;28;20034;-88
2022/07/10 11:55:53;;;;;;;0.10;0.10;;;;;;;;;;5007201;28;20045;-88
2022/07/10 11:58:19;;;;;;;0.00;0.00;;;;;;;;;;5013888;28;20049;-89
2022/07/10 12:00:58;;;;;;;0.05;0.05;;;;;;;;;;5024358;28;20076;-88
2022/07/10 12:03:27;;;;;;;0.00;0.00;;;;;;;;;;5012921;28;20125;-86
2022/07/10 12:05:56;;;;;;;0.00;0.00;;;;;;;;;;5013654;28;20069;-86
2022/07/10 12:08:24;;;;;;;0.10;0.10;;;;;;;;;;5003665;28;20419;-88
2022/07/10 12:14:19;;;;;;;0.10;0.10;;;;;;;;;;5022963;28;20041;-86
2022/07/10 12:16:46;;;;;;;0.00;0.00;;;;;;;;;;4996124;28;20103;-86
2022/07/10 12:19:14;;;;;;;0.10;0.10;;;;;;;;;;5009957;28;20081;-86
2022/07/10 12:21:44;;;;;;;0.00;0.00;;;;;;;;;;5031240;28;20045;-87
2022/07/10 12:24:11;;;;;;;0.10;0.10;;;;;;;;;;5012886;28;20076;-87
2022/07/10 12:26:38;;;;;;;0.00;0.00;;;;;;;;;;5016241;28;20042;-88
2022/07/10 12:29:04;;;;;;;0.00;0.00;;;;;;;;;;5033372;28;20045;-87
2022/07/10 12:31:31;;;;;;;0.00;0.00;;;;;;;;;;5009143;28;20046;-87
2022/07/10 12:34:02;;;;;;;0.00;0.00;;;;;;;;;;5010249;28;20065;-86
2022/07/10 12:36:47;;;;;;;0.10;0.10;;;;;;;;;;5005951;28;20106;-88
2022/07/10 12:39:17;;;;;;;0.10;0.10;;;;;;;;;;5015764;28;20041;-87
2022/07/10 12:42:02;;;;;;;0.10;0.10;;;;;;;;;;5016729;28;20052;-88
2022/07/10 12:47:24;;;;;;;0.10;0.10;;;;;;;;;;5026209;28;20295;-85
2022/07/10 12:50:03;;;;;;;0.10;0.10;;;;;;;;;;4989183;28;20045;-87
2022/07/10 12:52:34;;;;;;;0.10;0.10;;;;;;;;;;5016542;28;20049;-87
2022/07/10 12:55:16;;;;;;;0.00;0.00;;;;;;;;;;5016398;28;20041;-87
2022/07/10 12:58:06;;;;;;;0.00;0.00;;;;;;;;;;5015720;28;20060;-87
2022/07/10 13:00:34;;;;;;;0.00;0.00;;;;;;;;;;5016039;28;20600;-86
2022/07/10 13:03:11;;;;;;;0.10;0.10;;;;;;;;;;5019067;28;20776;-86
2022/07/10 13:05:49;;;;;;;0.08;0.08;;;;;;;;;;5016195;28;20046;-86
2022/07/10 13:08:16;;;;;;;0.00;0.00;;;;;;;;;;5015924;28;20038;-87
2022/07/10 13:10:43;;;;;;;0.10;0.10;;;;;;;;;;5011140;28;20061;-87
2022/07/10 13:13:11;;;;;;;0.08;0.08;;;;;;;;;;5038595;28;20554;-89
2022/07/10 13:15:45;;;;;;;0.20;0.20;;;;;;;;;;5018680;28;20038;-88
2022/07/10 13:18:18;;;;;;;0.00;0.00;;;;;;;;;;5011716;28;20092;-87
2022/07/10 13:20:45;;;;;;;0.13;0.13;;;;;;;;;;5019138;28;20046;-89
2022/07/10 13:23:11;;;;;;;0.10;0.10;;;;;;;;;;5013371;28;20602;-88
2022/07/10 13:25:38;;;;;;;0.00;0.00;;;;;;;;;;5000033;28;20042;-87
2022/07/10 13:28:04;;;;;;;0.10;0.10;;;;;;;;;;5020211;28;20483;-88
2022/07/10 13:30:31;;;;;;;0.08;0.08;;;;;;;;;;5019576;28;20048;-87
2022/07/10 13:32:57;;;;;;;0.03;0.03;;;;;;;;;;5017142;28;20483;-87
2022/07/10 13:35:23;;;;;;;0.00;0.00;;;;;;;;;;5019410;28;20044;-87
2022/07/10 13:37:49;;;;;;;0.10;0.10;;;;;;;;;;5019182;28;20527;-88
2022/07/10 13:40:17;;;;;;;0.10;0.10;;;;;;;;;;5020614;28;20063;-88
2022/07/10 13:42:44;;;;;;;0.10;0.10;;;;;;;;;;5018879;28;20041;-87
2022/07/10 13:45:36;;;;;;;0.05;0.05;;;;;;;;;;5023334;28;20037;-87
2022/07/10 13:48:03;;;;;;;0.10;0.10;;;;;;;;;;5013887;28;20069;-89
2022/07/10 13:50:29;;;;;;;0.00;0.00;;;;;;;;;;4993050;28;20068;-89
2022/07/10 13:52:56;;;;;;;0.08;0.08;;;;;;;;;;5035950;28;20045;-88
2022/07/10 13:55:27;;;;;;;0.00;0.00;;;;;;;;;;5018765;28;20052;-88
2022/07/10 13:58:01;;;;;;;0.17;0.17;;;;;;;;;;5025281;28;20045;-88
2022/07/10 14:00:27;;;;;;;0.00;0.00;;;;;;;;;;5019100;28;20514;-88
2022/07/10 14:02:55;;;;;;;0.10;0.10;;;;;;;;;;5019646;28;20044;-88
2022/07/10 14:05:22;;;;;;;0.00;0.00;;;;;;;;;;5015459;28;20075;-88
2022/07/10 14:07:48;;;;;;;0.00;0.00;;;;;;;;;;5014871;28;20047;-88
2022/07/10 14:10:15;;;;;;;0.00;0.00;;;;;;;;;;5010934;28;20091;-85
2022/07/10 14:12:41;;;;;;;0.00;0.00;;;;;;;;;;5015833;28;20041;-89
2022/07/10 14:15:07;;;;;;;0.00;0.00;;;;;;;;;;5037670;28;20077;-87
2022/07/10 14:17:33;;;;;;;0.00;0.00;;;;;;;;;;5012642;28;20172;-87
2022/07/10 14:19:59;;;;;;;0.00;0.00;;;;;;;;;;5016238;28;20078;-88
2022/07/10 14:22:28;;;;;;;0.00;0.00;;;;;;;;;;5031287;28;20045;-88
2022/07/10 14:24:56;;;;;;;0.08;0.08;;;;;;;;;;5008203;28;20467;-88
2022/07/10 14:27:24;;;;;;;0.20;0.20;;;;;;;;;;5032733;28;20044;-86
2022/07/10 14:30:01;;;;;;;0.10;0.10;;;;;;;;;;5019421;28;20136;-86
2022/07/10 14:32:43;;;;;;;0.10;0.10;;;;;;;;;;5005905;28;20072;-87
2022/07/10 14:35:09;;;;;;;0.10;0.10;;;;;;;;;;5013371;28;20076;-88
2022/07/10 14:37:44;;;;;;;0.00;0.00;;;;;;;;;;5002126;28;20033;-87
2022/07/10 14:40:11;;;;;;;0.10;0.10;;;;;;;;;;5000439;28;20533;-86
2022/07/10 14:42:37;;;;;;;0.05;0.05;;;;;;;;;;5008604;28;20120;-86
2022/07/10 14:45:04;;;;;;;0.08;0.08;;;;;;;;;;5034375;28;20570;-87
2022/07/10 14:47:32;;;;;;;0.00;0.00;;;;;;;;;;5017544;28;20076;-88
2022/07/10 14:50:01;;;;;;;0.08;0.08;;;;;;;;;;5018963;28;20041;-89
2022/07/10 14:52:38;;;;;;;0.10;0.10;;;;;;;;;;5013643;28;20049;-87
2022/07/10 14:55:07;;;;;;;0.00;0.00;;;;;;;;;;5019879;28;20044;-88
2022/07/10 14:57:33;;;;;;;0.00;0.00;;;;;;;;;;5015134;28;20124;-89
2022/07/10 15:00:00;;;;;;;0.10;0.10;;;;;;;;;;5012298;28;20104;-88
2022/07/10 15:02:45;;;;;;;0.00;0.00;;;;;;;;;;5017877;28;20069;-88
2022/07/10 15:05:18;;;;;;;;;;;;;;;;;;4996726;28;20045;-90
2022/07/10 15:07:44;;;;;;;0.00;0.00;;;;;;;;;;5014404;28;20036;-88